Time;durP1;ratioP1;P1;durP2;ratioP2;P2;SDS_P1;SDS_P2;PMS_P1;PMS_P2;Temp;Humidity;BMP_temperature;BMP_pressure;BME280_temperature;BME280_humidity;BME280_pressure;Samples;Min_cycle;Max_cycle;Signal;HPM_P1;HPM_P2
2022/07/03 00:02:48;;;;;;;4.32;2.88;;;;;;;16.30;69.12;100448.50;10418763;28;20095;-76
2022/07/03 00:07:50;;;;;;;4.13;2.97;;;;;;;16.34;69.16;100444.75;10418330;28;20041;-76
2022/07/03 00:12:51;;;;;;;3.47;3.17;;;;;;;16.63;67.86;100445.94;10420203;28;20129;-76
2022/07/03 00:17:53;;;;;;;3.30;3.05;;;;;;;16.31;69.32;100450.22;10399987;28;20060;-78
2022/07/03 00:22:59;;;;;;;3.08;2.88;;;;;;;16.07;70.01;100454.91;10417642;28;20506;-76
2022/07/03 00:28:01;;;;;;;4.07;3.40;;;;;;;15.89;71.18;100461.94;10418294;28;20398;-76
2022/07/03 00:33:04;;;;;;;3.28;2.97;;;;;;;15.99;69.71;100457.06;10423613;28;20057;-76
2022/07/03 00:38:06;;;;;;;3.53;2.63;;;;;;;16.02;68.96;100450.75;10409601;28;20513;-76
2022/07/03 00:43:09;;;;;;;4.95;2.90;;;;;;;16.02;68.67;100445.44;10423937;28;20053;-77
2022/07/03 00:48:14;;;;;;;2.85;2.45;;;;;;;16.06;68.30;100441.72;10424924;28;20044;-76
2022/07/03 00:53:23;;;;;;;3.38;2.35;;;;;;;15.78;69.83;100440.38;10407120;28;20052;-76
2022/07/03 00:58:26;;;;;;;3.97;2.85;;;;;;;15.81;69.25;100437.59;10411514;28;20041;-76
2022/07/03 01:03:32;;;;;;;3.20;2.70;;;;;;;16.00;68.59;100434.91;10423804;28;20499;-77
2022/07/03 01:08:45;;;;;;;3.08;2.80;;;;;;;15.86;68.55;100421.47;10424576;28;20041;-76
2022/07/03 01:14:15;;;;;;;3.17;2.83;;;;;;;15.68;69.52;100423.19;10424589;28;20055;-76
2022/07/03 01:19:19;;;;;;;2.55;2.35;;;;;;;15.61;70.30;100406.66;10426712;28;20409;-76
2022/07/03 01:24:23;;;;;;;2.60;2.40;;;;;;;15.65;69.82;100407.41;10424011;28;20083;-75
2022/07/03 01:29:35;;;;;;;2.92;2.63;;;;;;;15.50;70.86;100403.69;10405598;28;20069;-76
2022/07/03 01:34:43;;;;;;;2.45;2.15;;;;;;;15.47;70.43;100397.66;10423469;28;20045;-77
2022/07/03 01:39:50;;;;;;;2.30;2.00;;;;;;;15.58;69.58;100395.34;10426484;28;20048;-76
2022/07/03 01:44:58;;;;;;;2.65;2.17;;;;;;;15.67;69.18;100387.03;10425788;28;20049;-76
2022/07/03 01:50:01;;;;;;;3.47;2.20;;;;;;;15.88;68.01;100385.97;10405771;28;20076;-77
2022/07/03 01:55:04;;;;;;;1.98;1.88;;;;;;;15.61;69.11;100390.78;10422682;28;20491;-76
2022/07/03 02:00:07;;;;;;;2.05;1.88;;;;;;;15.63;68.35;100383.63;10425237;28;20061;-76
2022/07/03 02:05:43;;;;;;;2.00;1.90;;;;;;;15.49;69.03;100382.53;10424913;28;20081;-76
2022/07/03 02:11:05;;;;;;;2.28;2.00;;;;;;;15.54;69.04;100380.56;10257361;29;20077;-76
2022/07/03 02:16:09;;;;;;;2.65;2.45;;;;;;;15.43;69.42;100382.81;10256712;29;20051;-76
2022/07/03 02:21:19;;;;;;;5.18;1.92;;;;;;;15.43;69.50;100382.81;10258222;29;20138;-76
2022/07/03 02:26:46;;;;;;;3.08;2.78;;;;;;;15.42;69.53;100381.13;10258029;29;20063;-76
2022/07/03 02:31:57;;;;;;;2.42;2.00;;;;;;;15.20;70.73;100383.88;10257106;29;20051;-75
2022/07/03 02:37:18;;;;;;;2.03;1.83;;;;;;;15.15;70.74;100378.78;10255774;29;20134;-75
2022/07/03 02:42:30;;;;;;;2.30;2.03;;;;;;;14.97;71.37;100375.19;10256749;29;20433;-75
2022/07/03 02:47:38;;;;;;;2.50;2.28;;;;;;;15.11;70.68;100374.56;10398250;28;20080;-76
2022/07/03 02:52:44;;;;;;;2.33;2.22;;;;;;;14.95;71.15;100373.53;10419959;28;20041;-75
2022/07/03 02:57:55;;;;;;;2.28;2.05;;;;;;;14.81;71.97;100374.13;10420487;28;20124;-75
2022/07/03 03:02:58;;;;;;;2.35;2.22;;;;;;;14.82;72.09;100378.50;10403214;28;20160;-76
2022/07/03 03:08:22;;;;;;;2.60;2.40;;;;;;;14.87;71.79;100365.91;10422778;28;20491;-76
2022/07/03 03:13:30;;;;;;;2.85;2.30;;;;;;;14.92;71.86;100384.22;10420794;28;20041;-77
2022/07/03 03:18:39;;;;;;;2.65;2.45;;;;;;;15.06;71.35;100381.84;10418419;28;20121;-77
2022/07/03 03:23:50;;;;;;;2.70;2.45;;;;;;;14.79;71.89;100378.66;10419311;28;20506;-77
2022/07/03 03:28:52;;;;;;;2.95;2.53;;;;;;;14.76;72.57;100381.41;10421743;28;20080;-77
2022/07/03 03:33:55;;;;;;;3.22;2.30;;;;;;;14.85;72.21;100376.56;10418888;28;20388;-76
2022/07/03 03:38:57;;;;;;;2.85;2.55;;;;;;;14.84;72.20;100374.84;10400755;28;20045;-77
2022/07/03 03:43:59;;;;;;;3.63;2.67;;;;;;;15.02;71.15;100377.63;10418471;28;20051;-77
2022/07/03 03:49:00;;;;;;;2.92;2.72;;;;;;;14.98;71.61;100371.59;10420643;28;20044;-77
2022/07/03 03:54:04;;;;;;;2.60;2.40;;;;;;;14.93;72.00;100378.03;10400742;28;20475;-77
2022/07/03 03:59:06;;;;;;;2.50;2.35;;;;;;;14.90;72.29;100373.72;10418556;28;20427;-77
2022/07/03 04:04:07;;;;;;;2.00;1.90;;;;;;;15.03;72.04;100377.53;10400013;28;20067;-76
2022/07/03 04:09:09;;;;;;;3.38;2.47;;;;;;;15.42;70.30;100374.03;10399746;28;20095;-77
2022/07/03 04:14:11;;;;;;;3.35;2.70;;;;;;;15.40;70.13;100359.97;10420754;28;20049;-76
2022/07/03 04:19:12;;;;;;;2.25;2.05;;;;;;;15.56;69.58;100357.47;10418217;28;20487;-77
2022/07/03 04:24:14;;;;;;;2.75;2.55;;;;;;;15.62;69.76;100350.06;10417081;28;20083;-77
2022/07/03 04:29:16;;;;;;;3.40;2.50;;;;;;;15.79;69.41;100353.75;10416943;28;20041;-77
2022/07/03 04:34:17;;;;;;;3.70;2.35;;;;;;;16.00;68.36;100358.03;10402354;28;20116;-77
2022/07/03 04:39:19;;;;;;;3.10;2.58;;;;;;;15.95;69.03;100356.53;10417504;28;20044;-77
2022/07/03 04:44:21;;;;;;;3.20;2.78;;;;;;;16.23;67.52;100359.53;10416863;28;20124;-77
2022/07/03 04:49:22;;;;;;;2.40;2.30;;;;;;;16.26;67.65;100355.88;10399007;28;20041;-77
2022/07/03 04:54:24;;;;;;;2.72;2.53;;;;;;;16.46;67.46;100357.50;10401914;28;20073;-76
2022/07/03 04:59:26;;;;;;;2.45;2.25;;;;;;;16.69;66.41;100362.53;10416558;28;20044;-76
2022/07/03 05:04:28;;;;;;;2.47;2.28;;;;;;;16.88;65.38;100349.16;10415959;28;20119;-76
2022/07/03 05:09:29;;;;;;;4.22;2.42;;;;;;;17.11;64.89;100339.97;10414915;28;20087;-76
2022/07/03 05:14:31;;;;;;;2.47;2.22;;;;;;;17.51;63.30;100332.47;10416592;28;20038;-76
2022/07/03 05:19:33;;;;;;;2.67;2.47;;;;;;;17.61;63.46;100328.34;10422994;28;20169;-76
2022/07/03 05:24:34;;;;;;;2.40;2.00;;;;;;;18.21;61.88;100323.16;10405322;28;20400;-76
2022/07/03 05:29:36;;;;;;;2.30;2.10;;;;;;;18.59;60.35;100314.66;10423464;28;20038;-76
2022/07/03 05:34:39;;;;;;;7.63;2.38;;;;;;;19.28;58.32;100311.28;10422571;28;20045;-77
2022/07/03 05:39:41;;;;;;;2.75;1.90;;;;;;;19.45;57.08;100314.69;10425099;28;20057;-77
2022/07/03 05:44:43;;;;;;;3.15;1.98;;;;;;;19.75;56.46;100318.09;10422400;28;20048;-75
2022/07/03 05:49:49;;;;;;;3.25;1.77;;;;;;;20.37;55.44;100312.19;10420221;28;20095;-76
2022/07/03 05:54:51;;;;;;;1.92;1.73;;;;;;;20.95;53.40;100316.19;10421237;28;20041;-75
2022/07/03 05:59:53;;;;;;;1.42;1.33;;;;;;;21.52;52.26;100315.69;10424749;28;20037;-76
2022/07/03 06:04:54;;;;;;;1.83;1.40;;;;;;;21.97;50.47;100321.28;10421798;28;20581;-76
2022/07/03 06:09:56;;;;;;;2.75;1.67;;;;;;;22.02;49.99;100319.13;10421561;28;20061;-76
2022/07/03 06:14:58;;;;;;;1.85;1.67;;;;;;;22.26;50.32;100313.75;10421464;28;20046;-75
2022/07/03 06:20:04;;;;;;;1.67;1.58;;;;;;;22.44;49.00;100314.16;10388791;28;20045;-72
2022/07/03 06:25:07;;;;;;;1.45;1.35;;;;;;;22.93;48.88;100305.03;10421451;28;20049;-72
2022/07/03 06:30:09;;;;;;;1.90;1.67;;;;;;;23.35;47.50;100297.22;10421088;28;20042;-72
2022/07/03 06:35:11;;;;;;;2.67;1.55;;;;;;;23.72;47.25;100283.50;10423227;28;20069;-72
2022/07/03 06:40:13;;;;;;;2.33;1.70;;;;;;;23.96;45.77;100286.00;10421372;28;20484;-72
2022/07/03 06:45:15;;;;;;;2.00;1.88;;;;;;;24.04;46.99;100287.06;10421570;28;20484;-72
2022/07/03 06:50:17;;;;;;;1.67;1.52;;;;;;;24.30;47.07;100281.28;10420086;28;20042;-73
2022/07/03 06:55:19;;;;;;;2.83;1.80;;;;;;;24.84;45.63;100280.25;10419416;28;20049;-72
2022/07/03 07:00:20;;;;;;;2.08;1.50;;;;;;;25.26;45.46;100272.06;10419123;28;20144;-73
2022/07/03 07:05:22;;;;;;;2.50;1.27;;;;;;;25.89;42.11;100276.16;10419785;28;20057;-72
2022/07/03 07:10:24;;;;;;;2.65;1.60;;;;;;;26.20;43.13;100257.16;10418312;28;20483;-73
2022/07/03 07:15:25;;;;;;;1.58;1.48;;;;;;;26.06;42.04;100250.38;10419713;28;20049;-73
2022/07/03 07:20:27;;;;;;;1.90;1.30;;;;;;;26.20;41.70;100256.31;10419213;28;20132;-73
2022/07/03 07:25:29;;;;;;;4.03;1.30;;;;;;;25.98;43.25;100261.00;10418420;28;20045;-72
2022/07/03 07:30:30;;;;;;;2.70;1.20;;;;;;;26.66;41.78;100251.00;10419505;28;20093;-72
2022/07/03 07:35:32;;;;;;;2.20;1.60;;;;;;;26.74;41.78;100244.88;10418017;28;20100;-72
2022/07/03 07:40:34;;;;;;;1.50;1.40;;;;;;;26.50;42.82;100242.66;10416785;28;20419;-73
2022/07/03 07:45:36;;;;;;;1.27;1.17;;;;;;;27.19;41.52;100237.88;10417303;28;20050;-72
2022/07/03 07:50:38;;;;;;;1.80;1.10;;;;;;;27.70;39.87;100236.38;10419506;28;20045;-74
2022/07/03 07:55:39;;;;;;;1.70;1.10;;;;;;;28.04;39.37;100234.69;10418895;28;20045;-74
2022/07/03 08:05:35;;;;;;;1.42;1.33;;;;;;;28.43;38.04;100228.94;10399540;28;20047;-73
2022/07/03 08:06:03;;;;;;;1.17;1.08;;;;;;;28.90;36.94;100218.53;10416718;28;20087;-72
2022/07/03 08:11:04;;;;;;;1.10;1.02;;;;;;;28.07;39.33;100220.88;10419091;28;20084;-72
2022/07/03 08:16:06;;;;;;;1.27;1.10;;;;;;;29.00;36.57;100215.75;10442327;28;20045;-72
2022/07/03 08:21:08;;;;;;;2.30;0.90;;;;;;;29.05;36.43;100207.97;10457200;28;20048;-73
2022/07/03 08:26:09;;;;;;;1.52;0.90;;;;;;;28.27;36.71;100207.16;10457321;28;20043;-72
2022/07/03 08:31:11;;;;;;;1.52;1.02;;;;;;;27.74;37.42;100202.69;10457865;28;20376;-73
2022/07/03 08:36:13;;;;;;;1.05;0.95;;;;;;;28.30;36.77;100194.19;10429961;28;20084;-73
2022/07/03 08:41:16;;;;;;;1.77;0.80;;;;;;;28.36;35.67;100198.13;10417591;28;20052;-73
2022/07/03 08:46:19;;;;;;;2.85;0.93;;;;;;;27.45;36.63;100198.34;10427542;28;20060;-73
2022/07/03 08:51:24;;;;;;;0.57;0.57;;;;;;;27.63;35.45;100196.50;10415509;28;20041;-73
2022/07/03 08:56:29;;;;;;;1.17;0.95;;;;;;;27.79;35.53;100200.38;10426613;28;20075;-72
2022/07/03 09:01:32;;;;;;;1.08;0.98;;;;;;;27.61;37.30;100193.09;10406483;28;20049;-73
2022/07/03 09:06:34;;;;;;;1.30;0.77;;;;;;;28.33;36.35;100195.72;10408629;28;20080;-73
2022/07/03 09:11:37;;;;;;;1.75;0.70;;;;;;;28.09;34.30;100191.00;10438087;28;20045;-73
2022/07/03 09:16:40;;;;;;;1.52;0.60;;;;;;;28.36;33.75;100187.31;10426594;28;20041;-73
2022/07/03 09:21:42;;;;;;;1.73;0.80;;;;;;;28.73;35.03;100178.03;10423495;28;20096;-72
2022/07/03 09:26:51;;;;;;;1.15;0.90;;;;;;;29.12;33.82;100179.22;10423284;28;20128;-73
2022/07/03 09:31:55;;;;;;;0.95;0.70;;;;;;;29.39;33.31;100185.38;10422864;28;20052;-72
2022/07/03 09:36:58;;;;;;;0.70;0.70;;;;;;;29.67;33.60;100175.13;10404805;28;20049;-73
2022/07/03 09:42:11;;;;;;;1.50;0.85;;;;;;;29.14;33.61;100177.22;10437163;28;20048;-72
2022/07/03 09:47:21;;;;;;;0.68;0.68;;;;;;;29.07;34.94;100175.31;10406462;28;20132;-72
2022/07/03 09:52:29;;;;;;;1.70;0.65;;;;;;;28.10;34.56;100174.59;10422163;28;20414;-72
2022/07/03 09:57:31;;;;;;;0.90;0.80;;;;;;;28.36;34.34;100158.41;10422099;28;20042;-73
2022/07/03 10:02:32;;;;;;;1.23;0.88;;;;;;;29.60;33.47;100147.84;10404743;28;20041;-73
2022/07/03 10:07:49;;;;;;;1.63;0.60;;;;;;;30.42;32.01;100141.53;10421220;28;20402;-73
2022/07/03 10:12:53;;;;;;;1.33;0.75;;;;;;;31.13;31.50;100149.53;10420903;28;20037;-72
2022/07/03 10:17:57;;;;;;;0.95;0.90;;;;;;;30.83;31.59;100142.22;10421017;28;20036;-72
2022/07/03 10:22:59;;;;;;;0.63;0.63;;;;;;;31.20;32.02;100140.66;10422578;28;20044;-72
2022/07/03 10:28:02;;;;;;;1.67;0.90;;;;;;;31.92;31.54;100146.59;10420111;28;20107;-74
2022/07/03 10:33:03;;;;;;;0.85;0.80;;;;;;;31.10;30.41;100135.47;10419935;28;20124;-73
2022/07/03 10:38:22;;;;;;;1.52;0.90;;;;;;;31.15;30.99;100141.19;10420309;28;20040;-72
2022/07/03 10:48:55;;;;;;;1.27;1.17;;;;;;;29.78;32.20;100144.13;10421793;28;20507;-73
2022/07/03 10:54:17;;;;;;;0.98;0.90;;;;;;;30.07;32.23;100130.06;10419629;28;20049;-73
2022/07/03 10:59:19;;;;;;;1.27;0.80;;;;;;;30.62;31.60;100130.06;10418789;28;20406;-73
2022/07/03 11:04:21;;;;;;;2.15;0.88;;;;;;;30.33;31.54;100121.72;10401260;28;20053;-73
2022/07/03 11:09:23;;;;;;;0.80;0.80;;;;;;;29.81;32.40;100116.72;10403082;28;20462;-74
2022/07/03 11:14:26;;;;;;;1.95;0.70;;;;;;;30.56;32.79;100119.94;10418251;28;20038;-73
2022/07/03 11:19:30;;;;;;;1.25;0.68;;;;;;;31.32;30.58;100104.78;10419088;28;20045;-73
2022/07/03 11:24:39;;;;;;;1.37;0.77;;;;;;;32.39;29.37;100101.91;10433741;22;20037;-69
2022/07/03 11:29:41;;;;;;;1.90;0.70;;;;;;;32.33;29.14;100094.50;10416772;28;20385;-69
2022/07/03 11:34:43;;;;;;;2.42;0.82;;;;;;;32.79;28.48;100089.66;10416892;28;20101;-70
2022/07/03 11:39:51;;;;;;;1.73;0.60;;;;;;;31.10;28.99;100082.00;10417517;28;20037;-70
2022/07/03 11:44:53;;;;;;;1.25;0.90;;;;;;;30.38;31.35;100078.66;10432868;28;20049;-69
2022/07/03 11:49:55;;;;;;;0.70;0.70;;;;;;;30.80;32.11;100077.44;10416874;28;20037;-69
2022/07/03 11:54:56;;;;;;;0.82;0.80;;;;;;;31.43;30.22;100073.63;10416986;28;20052;-70
2022/07/03 12:00:05;;;;;;;1.02;0.80;;;;;;;31.93;30.62;100069.44;10416153;28;20038;-69
2022/07/03 12:05:15;;;;;;;0.90;0.63;;;;;;;31.52;30.05;100061.69;10416254;28;20053;-70
2022/07/03 12:10:41;;;;;;;0.70;0.70;;;;;;;31.58;29.67;100060.09;10416943;28;20046;-70
2022/07/03 12:15:43;;;;;;;0.80;0.80;;;;;;;32.02;31.46;100052.00;10416598;28;20056;-70
2022/07/03 12:20:45;;;;;;;1.77;0.77;;;;;;;32.58;29.80;100052.38;10415713;28;20064;-69
2022/07/03 12:25:46;;;;;;;1.77;0.75;;;;;;;32.55;28.49;100046.47;10416993;28;20049;-69
2022/07/03 12:30:51;;;;;;;0.60;0.60;;;;;;;32.57;29.35;100028.91;10426058;28;20496;-69
2022/07/03 12:36:07;;;;;;;0.60;0.60;;;;;;;33.00;28.52;100033.59;10425784;28;20051;-68
2022/07/03 12:41:10;;;;;;;0.50;0.50;;;;;;;32.92;27.86;100022.81;10426876;28;20042;-69
2022/07/03 12:46:21;;;;;;;0.80;0.70;;;;;;;33.19;27.61;100027.47;10426038;28;20454;-69
2022/07/03 12:51:41;;;;;;;0.98;0.80;;;;;;;33.35;27.87;100027.19;10423448;28;20403;-70
2022/07/03 12:56:43;;;;;;;1.65;0.90;;;;;;;33.07;26.98;100012.69;10426287;28;20446;-69
2022/07/03 13:02:00;;;;;;;0.60;0.60;;;;;;;32.73;28.71;100006.06;10422130;28;20095;-69
2022/07/03 13:07:05;;;;;;;1.08;0.80;;;;;;;32.40;28.44;100005.66;10423852;28;20041;-69
2022/07/03 13:12:07;;;;;;;;;;;;;;;32.67;28.51;100000.53;10423080;28;20037;-69
2022/07/03 13:17:09;;;;;;;0.68;0.65;;;;;;;33.22;28.02;99999.00;10422480;28;19921;-69
2022/07/03 13:22:10;;;;;;;0.82;0.52;;;;;;;32.34;28.70;100003.69;10422087;28;20038;-69
2022/07/03 13:27:12;;;;;;;0.80;0.80;;;;;;;32.81;29.25;99986.03;10421136;28;20456;-69
2022/07/03 13:32:14;;;;;;;1.23;0.60;;;;;;;33.13;28.95;99990.97;10420892;28;20471;-69
2022/07/03 13:37:16;;;;;;;1.40;0.70;;;;;;;33.58;27.96;99986.09;10420430;28;20041;-69
2022/07/03 13:42:17;;;;;;;1.77;0.70;;;;;;;33.50;27.33;99980.81;10421208;28;20045;-68
2022/07/03 13:47:19;;;;;;;2.70;0.70;;;;;;;33.37;28.38;99989.69;10421771;28;20041;-69
2022/07/03 13:52:21;;;;;;;2.13;0.60;;;;;;;33.39;27.26;99974.00;10420375;28;20041;-68
2022/07/03 13:57:23;;;;;;;0.82;0.60;;;;;;;32.60;28.61;99984.13;10419976;28;20393;-67
2022/07/03 14:02:25;;;;;;;0.60;0.60;;;;;;;33.06;26.95;99978.31;10420340;28;20037;-70
2022/07/03 14:07:26;;;;;;;0.90;0.60;;;;;;;32.58;27.62;99975.31;10421743;28;20041;-69
2022/07/03 14:12:28;;;;;;;1.35;0.30;;;;;;;32.66;26.05;99972.47;10422514;28;20041;-69
2022/07/03 14:17:30;;;;;;;0.93;0.40;;;;;;;31.56;27.45;99961.59;10419241;28;20045;-68
2022/07/03 14:22:31;;;;;;;0.77;0.40;;;;;;;31.79;26.94;99954.22;10419530;28;20038;-69
2022/07/03 14:32:53;;;;;;;2.38;0.80;;;;;;;32.02;28.15;99945.13;10420494;28;20507;-70
2022/07/03 14:37:55;;;;;;;0.70;0.40;;;;;;;32.44;25.99;99947.13;10422672;28;20077;-69
2022/07/03 14:42:57;;;;;;;0.45;0.40;;;;;;;32.99;26.18;99937.44;10419954;28;20054;-68
2022/07/03 14:47:59;;;;;;;1.00;0.50;;;;;;;33.06;25.30;99934.75;10419686;28;20053;-69
2022/07/03 14:53:01;;;;;;;0.40;0.40;;;;;;;32.49;26.73;99932.94;10419051;28;20053;-68
2022/07/03 14:58:11;;;;;;;1.73;0.40;;;;;;;32.54;26.37;99927.75;10420653;28;20084;-69
2022/07/03 15:03:28;;;;;;;1.05;0.43;;;;;;;33.05;25.43;99927.63;10422083;28;20053;-69
2022/07/03 15:08:33;;;;;;;0.55;0.50;;;;;;;32.99;25.29;99934.72;10421800;28;20107;-69
2022/07/03 15:13:35;;;;;;;0.50;0.45;;;;;;;33.13;25.02;99931.06;10419465;28;20572;-69
2022/07/03 15:18:38;;;;;;;0.30;0.30;;;;;;;32.94;25.60;99930.88;10420284;28;20041;-70
2022/07/03 15:23:40;;;;;;;1.05;0.45;;;;;;;33.13;25.72;99924.78;10419672;28;20045;-70
2022/07/03 15:28:43;;;;;;;0.75;0.60;;;;;;;33.36;24.72;99924.50;10420140;28;20037;-70
2022/07/03 15:33:45;;;;;;;0.85;0.50;;;;;;;32.77;26.24;99916.69;10418956;28;20049;-70
2022/07/03 15:39:03;;;;;;;0.70;0.43;;;;;;;32.71;26.84;99912.00;10418483;28;20088;-70
2022/07/03 15:44:27;;;;;;;0.63;0.60;;;;;;;32.26;27.79;99911.31;10417658;28;20095;-68
2022/07/03 15:49:35;;;;;;;0.68;0.40;;;;;;;32.59;27.17;99911.72;10418859;28;20049;-69
2022/07/03 15:54:58;;;;;;;2.00;0.55;;;;;;;33.05;25.75;99898.50;10419246;28;20049;-69
2022/07/03 16:00:07;;;;;;;0.73;0.50;;;;;;;31.82;27.96;99904.91;10418687;28;20034;-69
2022/07/03 16:05:13;;;;;;;0.50;0.50;;;;;;;30.97;28.57;99901.75;10417529;28;20045;-69
2022/07/03 16:10:15;;;;;;;1.38;0.60;;;;;;;30.53;29.33;99902.44;10416037;28;20051;-69
2022/07/03 16:15:19;;;;;;;2.45;0.63;;;;;;;30.83;29.20;99895.28;10411460;28;20057;-68
2022/07/03 16:20:21;;;;;;;0.52;0.45;;;;;;;30.90;29.91;99896.19;10406541;28;20067;-68
2022/07/03 16:25:24;;;;;;;1.35;0.60;;;;;;;31.50;28.62;99886.28;10410209;28;20128;-69
2022/07/03 16:30:26;;;;;;;4.72;2.60;;;;;;;31.85;27.87;99890.97;10409620;28;20136;-68
2022/07/03 16:35:39;;;;;;;1.02;0.70;;;;;;;31.64;28.85;99872.69;10408006;28;20430;-67
2022/07/03 16:40:42;;;;;;;0.70;0.70;;;;;;;31.14;28.84;99882.41;10410974;28;20133;-68
2022/07/03 16:45:44;;;;;;;2.38;1.58;;;;;;;31.02;29.23;99875.72;10411108;28;20048;-69
2022/07/03 16:50:52;;;;;;;1.08;0.95;;;;;;;30.56;29.92;99880.38;10417750;28;20462;-68
2022/07/03 16:55:55;;;;;;;0.50;0.50;;;;;;;30.29;30.70;99882.59;10416301;28;20069;-68
2022/07/03 17:01:03;;;;;;;0.65;0.47;;;;;;;30.33;30.22;99875.78;10415082;28;20473;-68
2022/07/03 17:06:05;;;;;;;0.60;0.60;;;;;;;30.63;29.29;99871.31;10416508;28;20060;-67
2022/07/03 17:11:08;;;;;;;1.70;0.60;;;;;;;30.21;30.26;99873.69;10415935;28;20041;-67
2022/07/03 17:16:11;;;;;;;3.08;1.00;;;;;;;30.01;30.79;99870.53;10422390;28;20124;-68
2022/07/03 17:21:16;;;;;;;1.52;1.23;;;;;;;29.79;31.06;99881.13;10421274;28;20065;-68
2022/07/03 17:26:23;;;;;;;1.33;0.60;;;;;;;29.65;31.78;99869.19;10419643;28;20053;-68
2022/07/03 17:31:25;;;;;;;1.38;1.05;;;;;;;29.57;31.67;99865.66;10421659;28;20121;-67
2022/07/03 17:36:29;;;;;;;1.40;1.00;;;;;;;29.73;30.79;99870.19;10465310;22;20049;-78
2022/07/03 17:41:32;;;;;;;0.50;0.50;;;;;;;29.50;31.33;99859.25;10449244;28;20136;-79
2022/07/03 17:46:35;;;;;;;1.25;0.50;;;;;;;29.23;31.80;99855.94;10444073;28;20050;-77
2022/07/03 17:51:40;;;;;;;3.22;0.60;;;;;;;29.04;32.07;99856.31;10447109;28;20037;-78
2022/07/03 17:56:43;;;;;;;0.68;0.40;;;;;;;29.11;32.03;99860.03;10451254;28;20041;-77
2022/07/03 18:01:46;;;;;;;0.43;0.40;;;;;;;28.97;32.12;99858.88;10454577;28;20113;-78
2022/07/03 18:06:47;;;;;;;0.52;0.52;;;;;;;28.82;32.33;99857.84;10456380;28;20056;-77
2022/07/03 18:11:58;;;;;;;0.55;0.50;;;;;;;28.68;32.24;99845.84;10460360;28;20099;-78
2022/07/03 18:17:00;;;;;;;0.65;0.57;;;;;;;28.81;33.86;99862.41;10449648;28;20064;-78
2022/07/03 18:22:04;;;;;;;0.60;0.60;;;;;;;28.64;35.42;99858.00;10446637;28;20083;-78
2022/07/03 18:27:13;;;;;;;1.00;0.90;;;;;;;28.41;35.93;99863.25;10446846;28;20042;-78
2022/07/03 18:32:17;;;;;;;1.52;0.80;;;;;;;28.07;37.34;99852.56;10434602;28;20056;-78
2022/07/03 18:37:20;;;;;;;1.15;0.82;;;;;;;27.77;38.55;99854.81;10451714;28;20410;-78
2022/07/03 18:42:22;;;;;;;1.60;0.90;;;;;;;27.68;38.64;99863.88;10445546;28;20076;-78
2022/07/03 18:47:24;;;;;;;2.08;1.00;;;;;;;27.46;39.40;99854.50;10444460;28;20045;-77
2022/07/03 18:52:35;;;;;;;1.75;0.93;;;;;;;27.33;39.84;99860.34;10443477;28;20053;-77
2022/07/03 18:57:41;;;;;;;1.10;1.00;;;;;;;27.28;40.95;99862.69;10444717;28;20051;-77
2022/07/03 19:02:49;;;;;;;1.88;1.10;;;;;;;27.00;41.27;99861.09;10444079;28;20049;-78
2022/07/03 19:08:02;;;;;;;1.30;1.20;;;;;;;26.71;42.21;99861.41;10445259;28;20105;-78
2022/07/03 19:13:07;;;;;;;2.08;1.20;;;;;;;26.55;42.79;99867.50;10442623;28;20083;-78
2022/07/03 19:18:09;;;;;;;1.55;1.25;;;;;;;26.44;42.72;99867.78;10441573;28;20092;-77
2022/07/03 19:23:11;;;;;;;1.40;1.30;;;;;;;26.60;42.36;99866.03;10437858;28;20529;-78
2022/07/03 19:28:12;;;;;;;1.55;1.08;;;;;;;26.59;42.51;99875.13;10440571;28;20053;-77
2022/07/03 19:33:14;;;;;;;2.75;1.40;;;;;;;26.23;43.42;99868.03;10428668;28;20045;-77
2022/07/03 19:38:18;;;;;;;1.30;1.20;;;;;;;26.27;43.40;99872.13;10427859;28;20053;-78
2022/07/03 19:43:20;;;;;;;2.10;1.40;;;;;;;25.82;44.50;99878.38;10428654;28;20046;-77
2022/07/03 19:48:22;;;;;;;2.33;1.25;;;;;;;25.57;45.91;99883.41;10424206;28;20054;-78
2022/07/03 19:53:24;;;;;;;1.48;1.20;;;;;;;25.35;46.60;99878.41;10438042;28;20045;-78
2022/07/03 19:58:25;;;;;;;2.95;1.60;;;;;;;25.15;47.84;99880.31;10433641;28;20059;-77
2022/07/03 20:03:28;;;;;;;1.90;1.20;;;;;;;25.04;48.90;99883.97;10432370;28;20068;-78
2022/07/03 20:08:30;;;;;;;1.40;1.10;;;;;;;24.83;50.26;99876.09;10439347;28;20095;-77
2022/07/03 20:13:32;;;;;;;1.90;1.38;;;;;;;24.97;49.18;99882.88;10444785;28;20041;-77
2022/07/03 20:18:34;;;;;;;3.33;1.40;;;;;;;24.84;48.82;99871.59;10442245;28;20049;-77
2022/07/03 20:24:30;;;;;;;1.40;1.30;;;;;;;24.54;49.33;99877.97;10418227;28;20514;-77
2022/07/03 20:28:58;;;;;;;1.33;1.23;;;;;;;24.44;49.26;99867.25;10419321;28;20073;-77
2022/07/03 20:34:00;;;;;;;1.88;1.20;;;;;;;24.54;48.78;99875.28;10419264;28;20063;-77
2022/07/03 20:39:03;;;;;;;1.40;1.30;;;;;;;24.38;49.34;99879.38;10421614;28;20507;-78
2022/07/03 20:44:11;;;;;;;1.40;1.30;;;;;;;24.25;50.08;99876.09;10424794;28;20125;-77
2022/07/03 20:49:13;;;;;;;1.63;1.33;;;;;;;24.35;49.01;99876.97;10435028;28;20120;-78
2022/07/03 20:54:18;;;;;;;2.13;1.55;;;;;;;24.07;50.04;99880.44;10433687;28;20050;-77
2022/07/03 20:59:20;;;;;;;2.28;1.33;;;;;;;23.99;50.04;99877.59;10428454;28;20487;-77
2022/07/03 21:04:21;;;;;;;1.42;1.33;;;;;;;23.90;50.99;99879.28;10431772;28;20064;-78
2022/07/03 21:09:23;;;;;;;1.20;1.10;;;;;;;23.63;51.32;99880.72;10418864;28;20052;-79
2022/07/03 21:14:28;;;;;;;1.95;1.20;;;;;;;23.68;51.39;99883.03;10429376;28;20061;-78
2022/07/03 21:19:48;;;;;;;1.30;1.20;;;;;;;23.44;52.62;99871.75;10442902;28;20041;-77
2022/07/03 21:24:50;;;;;;;2.45;1.55;;;;;;;23.40;52.57;99872.03;10442752;28;20406;-78
2022/07/03 21:29:52;;;;;;;1.92;1.33;;;;;;;23.23;53.17;99866.44;10426307;28;20143;-77
2022/07/03 21:34:53;;;;;;;1.42;1.30;;;;;;;23.38;52.33;99867.78;10435469;28;20065;-78
2022/07/03 21:39:55;;;;;;;1.92;1.30;;;;;;;23.12;52.98;99864.69;10431519;28;20046;-78
2022/07/03 21:44:57;;;;;;;1.23;1.13;;;;;;;22.93;53.52;99870.78;10415712;28;20049;-78
2022/07/03 21:49:58;;;;;;;2.28;1.10;;;;;;;22.76;54.34;99869.53;10414096;28;20100;-78
2022/07/03 21:55:00;;;;;;;1.80;1.40;;;;;;;22.83;53.62;99876.06;10432148;28;20119;-78
2022/07/03 22:00:03;;;;;;;1.95;1.40;;;;;;;22.73;54.24;99874.31;10439662;28;20045;-80
2022/07/03 22:05:13;;;;;;;2.33;1.17;;;;;;;22.53;55.43;99875.97;10436258;28;20057;-79
2022/07/03 22:10:15;;;;;;;2.33;1.30;;;;;;;22.47;55.48;99876.50;10425894;28;20407;-78
2022/07/03 22:15:17;;;;;;;2.03;1.40;;;;;;;22.43;55.96;99870.53;10429341;28;20045;-79
2022/07/03 22:20:20;;;;;;;1.48;1.38;;;;;;;22.30;56.28;99870.72;10425763;28;20061;-77
2022/07/03 22:25:22;;;;;;;1.65;1.50;;;;;;;22.39;56.49;99871.78;10437138;28;20041;-78
2022/07/03 22:30:24;;;;;;;1.92;1.83;;;;;;;22.12;57.08;99874.91;10429193;28;20517;-78
2022/07/03 22:35:26;;;;;;;1.65;1.50;;;;;;;21.94;57.45;99869.22;10423192;28;20049;-79
2022/07/03 22:40:28;;;;;;;1.80;1.70;;;;;;;21.83;58.03;99867.41;10424766;28;20049;-78
2022/07/03 22:45:31;;;;;;;2.45;1.73;;;;;;;21.72;58.82;99855.88;10426694;28;20111;-79
2022/07/03 22:50:32;;;;;;;3.03;2.05;;;;;;;21.71;59.23;99864.88;10424434;28;20115;-78
2022/07/03 22:55:34;;;;;;;1.88;1.75;;;;;;;21.53;59.72;99857.38;10432192;28;20046;-78
2022/07/03 23:00:36;;;;;;;1.90;1.77;;;;;;;21.38;59.75;99859.44;10426451;28;20045;-77
2022/07/03 23:05:38;;;;;;;1.75;1.65;;;;;;;21.32;60.32;99870.59;10426354;28;20042;-77
2022/07/03 23:10:39;;;;;;;2.05;1.70;;;;;;;21.16;61.14;99864.72;10421475;28;20033;-78
2022/07/03 23:15:41;;;;;;;1.70;1.60;;;;;;;21.02;61.78;99867.63;10427854;28;20033;-79
2022/07/03 23:20:43;;;;;;;2.88;1.80;;;;;;;20.90;61.46;99858.75;10425087;28;20144;-79
2022/07/03 23:25:44;;;;;;;2.22;1.77;;;;;;;20.76;61.73;99857.16;10424041;28;20085;-78
2022/07/03 23:30:46;;;;;;;1.60;1.50;;;;;;;21.40;59.06;99862.00;10420367;28;20479;-80
2022/07/03 23:35:48;;;;;;;1.50;1.40;;;;;;;21.30;58.81;99866.34;10473162;22;20052;-80
2022/07/03 23:41:03;;;;;;;1.80;1.70;;;;;;;21.10;59.64;99867.88;10440352;28;20042;-81